Millhaven, Canada
Current Conditions -  °F | °C
As of 11:00 PM on Monday 20 Oct 2014 (Local Time) from CYGK Reporting Station
Rain Showers Rain Showers  
Wind Chill: 54°   Ceiling: 4800
Heat Index: 54°   Visibility: 12mi
Dew Point: 46°   Wind: 13mph
Humidity: 77%   Direction: 160°SSE
Pressure: 29.84"   Gusts: NA
Location:  44.2°N, 76.75°W
Report Text: CYGK 210300Z 16011KT 12SM -SHRA FEW020 OVC048 12/08 A2984 RMK CF1SC7 LAST OBS/NEXT 211000 UTC SLP106
Loading
Personal Weather Stations






























Interactive Weather Map New forecast layout! Learn more

10-Day Weather Forecast

Advertisements
Track Severe Weather on mobile